Time;durP1;ratioP1;P1;durP2;ratioP2;P2;SDS_P1;SDS_P2;PMS_P1;PMS_P2;Temp;Humidity;BMP_temperature;BMP_pressure;BME280_temperature;BME280_humidity;BME280_pressure;Samples;Min_cycle;Max_cycle;Signal;HPM_P1;HPM_P2
2021/10/02 00:37:36;;;;;;;3.42;1.60;;;15.30;82.60;;;;;;5010961;28;20057;-66
2021/10/02 00:45:40;;;;;;;4.20;1.42;;;15.30;83.40;;;;;;4984704;28;20068;-65
2021/10/02 00:48:08;;;;;;;3.22;1.67;;;15.30;83.80;;;;;;5015048;28;20036;-66
2021/10/02 00:50:34;;;;;;;3.20;1.48;;;15.40;83.20;;;;;;5014697;28;20026;-65
2021/10/02 00:52:59;;;;;;;3.13;1.50;;;15.30;83.90;;;;;;5015146;28;20045;-66
2021/10/02 00:55:25;;;;;;;4.10;1.50;;;15.30;84.50;;;;;;5015003;28;20025;-64
2021/10/02 00:57:51;;;;;;;4.57;1.42;;;15.30;84.20;;;;;;5014174;28;20028;-64
2021/10/02 01:00:17;;;;;;;2.88;1.25;;;15.30;83.20;;;;;;5014971;28;20036;-64
2021/10/02 01:03:09;;;;;;;3.65;1.50;;;15.30;84.10;;;;;;5030080;28;20030;-65
2021/10/02 01:05:59;;;;;;;3.60;1.60;;;15.30;83.30;;;;;;5013102;28;20395;-66
2021/10/02 01:08:54;;;;;;;4.72;1.70;;;15.30;83.60;;;;;;5014687;28;20147;-65
2021/10/02 01:11:47;;;;;;;5.00;1.60;;;15.30;83.30;;;;;;5014635;28;20042;-65
2021/10/02 01:14:31;;;;;;;3.85;1.52;;;15.30;84.40;;;;;;5014728;28;20030;-64
2021/10/02 01:17:02;;;;;;;3.28;1.60;;;15.30;83.20;;;;;;5014414;28;20030;-67
2021/10/02 01:19:44;;;;;;;4.10;1.50;;;15.30;84.20;;;;;;5014455;28;20026;-64
2021/10/02 01:22:42;;;;;;;3.55;1.50;;;15.30;84.70;;;;;;5013390;28;20022;-65
2021/10/02 01:25:13;;;;;;;5.72;2.00;;;15.30;84.40;;;;;;5013087;28;20022;-65
2021/10/02 01:27:54;;;;;;;3.92;1.60;;;15.40;85.00;;;;;;5013678;28;20368;-65
2021/10/02 01:36:42;;;;;;;5.22;1.40;;;15.30;84.00;;;;;;5013958;28;20025;-64
2021/10/02 01:47:13;;;;;;;3.92;1.50;;;15.30;84.10;;;;;;5014181;28;20080;-64
2021/10/02 01:49:41;;;;;;;3.45;1.50;;;15.30;84.20;;;;;;5013530;28;20026;-66
2021/10/02 01:52:07;;;;;;;3.03;1.45;;;15.30;84.90;;;;;;5014014;28;20022;-64
2021/10/02 01:54:34;;;;;;;4.78;1.80;;;15.30;85.00;;;;;;5011939;28;20029;-65
2021/10/02 01:57:02;;;;;;;4.63;1.80;;;15.30;84.70;;;;;;5011782;28;20026;-65
2021/10/02 01:59:30;;;;;;;4.40;1.60;;;15.30;85.30;;;;;;5013930;28;20113;-65
2021/10/02 02:01:56;;;;;;;4.57;2.00;;;15.30;86.00;;;;;;5013951;28;20399;-65
2021/10/02 02:04:23;;;;;;;3.85;1.65;;;15.30;84.80;;;;;;5011943;28;20022;-65
2021/10/02 02:06:49;;;;;;;3.90;1.40;;;15.30;84.80;;;;;;5013536;28;20025;-64
2021/10/02 02:09:16;;;;;;;4.47;1.60;;;15.30;85.40;;;;;;5012474;28;20049;-65
2021/10/02 02:11:45;;;;;;;4.00;1.67;;;15.30;85.30;;;;;;5011908;28;20041;-66
2021/10/02 02:14:13;;;;;;;4.05;1.73;;;15.30;85.10;;;;;;5012442;28;20521;-65
2021/10/02 02:16:40;;;;;;;3.40;1.70;;;15.30;85.00;;;;;;5013255;28;20018;-65
2021/10/02 02:19:07;;;;;;;4.88;1.90;;;15.30;85.40;;;;;;5013161;28;20030;-65
2021/10/02 02:21:33;;;;;;;3.78;1.52;;;15.30;85.50;;;;;;5012250;28;20049;-65
2021/10/02 02:23:58;;;;;;;3.95;2.03;;;15.30;86.20;;;;;;5011946;28;20109;-65
2021/10/02 02:26:28;;;;;;;4.75;2.00;;;15.30;85.80;;;;;;5012593;28;20041;-65
2021/10/02 02:28:55;;;;;;;4.60;1.60;;;15.30;85.40;;;;;;5013430;28;20060;-65
2021/10/02 02:31:21;;;;;;;3.88;1.80;;;15.30;86.90;;;;;;5011924;28;20072;-66
2021/10/02 02:33:47;;;;;;;4.80;2.15;;;15.30;86.60;;;;;;5011602;28;20026;-66
2021/10/02 02:36:12;;;;;;;3.20;1.77;;;15.30;86.90;;;;;;5012814;28;20065;-66
2021/10/02 02:38:38;;;;;;;4.07;1.70;;;15.30;86.10;;;;;;5012000;28;20021;-66
2021/10/02 02:41:04;;;;;;;5.13;1.90;;;15.30;86.00;;;;;;5011465;28;20033;-67
2021/10/02 02:43:34;;;;;;;4.55;1.92;;;15.30;85.60;;;;;;5012994;28;20038;-66
2021/10/02 02:46:13;;;;;;;11.52;2.20;;;15.30;86.20;;;;;;5005574;28;20108;-66
2021/10/02 02:49:09;;;;;;;9.00;2.30;;;15.30;86.20;;;;;;5006645;28;20049;-66
2021/10/02 02:51:48;;;;;;;6.93;2.17;;;15.30;86.60;;;;;;5008055;28;20088;-66
2021/10/02 02:54:27;;;;;;;12.82;2.67;;;15.30;86.80;;;;;;5011650;28;20104;-66
2021/10/02 02:56:55;;;;;;;4.00;1.88;;;15.30;86.70;;;;;;5012053;28;20030;-66
2021/10/02 02:59:33;;;;;;;6.60;2.05;;;15.30;86.90;;;;;;5012704;28;20058;-65
2021/10/02 03:02:01;;;;;;;6.05;2.05;;;15.30;86.70;;;;;;5012789;28;20104;-66
2021/10/02 03:04:31;;;;;;;5.50;2.05;;;15.30;86.80;;;;;;5027166;28;20018;-67
2021/10/02 03:06:58;;;;;;;4.90;2.08;;;15.30;86.70;;;;;;5011364;28;20524;-66
2021/10/02 03:09:25;;;;;;;5.38;1.80;;;15.30;86.80;;;;;;5012476;28;20034;-65
2021/10/02 03:11:53;;;;;;;7.18;2.05;;;15.30;87.90;;;;;;5012092;28;20102;-66
2021/10/02 03:14:21;;;;;;;6.35;2.40;;;15.30;87.20;;;;;;5011284;28;20439;-65
2021/10/02 03:16:49;;;;;;;4.90;2.20;;;15.30;87.30;;;;;;5012216;28;20018;-65
2021/10/02 03:19:15;;;;;;;5.53;2.50;;;15.30;87.20;;;;;;5011944;28;20387;-65
2021/10/02 03:21:41;;;;;;;5.07;2.17;;;15.30;87.70;;;;;;5012468;28;20033;-62
2021/10/02 03:24:08;;;;;;;4.50;2.13;;;15.30;87.40;;;;;;5012225;28;20080;-64
2021/10/02 03:26:36;;;;;;;5.75;2.10;;;15.30;87.10;;;;;;5010248;28;20026;-65
2021/10/02 03:29:02;;;;;;;4.55;2.35;;;15.30;87.50;;;;;;5012196;28;20487;-66
2021/10/02 03:31:29;;;;;;;6.03;2.45;;;15.30;87.90;;;;;;5010968;28;20084;-67
2021/10/02 03:33:55;;;;;;;5.32;2.40;;;15.30;86.60;;;;;;5010545;28;20026;-66
2021/10/02 03:36:20;;;;;;;4.80;2.15;;;15.30;87.20;;;;;;5011789;28;20034;-65
2021/10/02 03:38:46;;;;;;;6.72;2.60;;;15.30;87.20;;;;;;5012084;28;20483;-64
2021/10/02 03:41:12;;;;;;;10.13;2.70;;;15.30;88.90;;;;;;5011715;28;20037;-65
2021/10/02 03:43:38;;;;;;;10.73;2.50;;;15.30;87.90;;;;;;5011671;28;20022;-65
2021/10/02 03:46:04;;;;;;;8.52;2.88;;;15.30;88.80;;;;;;5011790;28;20160;-65
2021/10/02 03:48:31;;;;;;;8.38;2.60;;;15.40;88.00;;;;;;5011435;28;20025;-64
2021/10/02 03:50:58;;;;;;;6.22;2.60;;;15.30;87.30;;;;;;5011815;28;20033;-67
2021/10/02 03:53:24;;;;;;;7.65;2.75;;;15.30;87.90;;;;;;5010606;28;20057;-65
2021/10/02 03:55:50;;;;;;;5.32;2.45;;;15.30;87.80;;;;;;5011328;28;20567;-65
2021/10/02 03:58:15;;;;;;;7.40;2.90;;;15.30;87.60;;;;;;5012013;28;20112;-67
2021/10/02 04:00:41;;;;;;;7.00;2.33;;;15.30;87.40;;;;;;5011814;28;20026;-65
2021/10/02 04:03:06;;;;;;;6.30;2.60;;;15.30;88.10;;;;;;5009822;28;20422;-65
2021/10/02 04:05:32;;;;;;;5.50;2.53;;;15.30;87.40;;;;;;5010333;28;20026;-65
2021/10/02 04:07:57;;;;;;;5.70;2.85;;;15.30;87.70;;;;;;5010087;28;20026;-63
2021/10/02 04:11:19;;;;;;;5.10;2.50;;;15.30;87.80;;;;;;5010855;28;20041;-64
2021/10/02 04:17:06;;;;;;;5.28;2.72;;;15.30;88.10;;;;;;5008924;28;20109;-66
2021/10/02 04:19:32;;;;;;;7.60;2.70;;;15.30;87.90;;;;;;5010348;28;20117;-66
2021/10/02 04:21:57;;;;;;;5.72;2.83;;;15.30;87.60;;;;;;5010247;28;20050;-64
2021/10/02 04:24:25;;;;;;;4.95;2.53;;;15.30;87.50;;;;;;5010836;28;20559;-66
2021/10/02 04:26:51;;;;;;;5.78;3.40;;;15.30;88.90;;;;;;5009872;28;20034;-66
2021/10/02 04:29:16;;;;;;;5.10;2.80;;;15.30;88.20;;;;;;5011436;28;20051;-65
2021/10/02 04:31:42;;;;;;;5.32;3.20;;;15.30;88.70;;;;;;5010855;28;20058;-65
2021/10/02 04:34:07;;;;;;;5.75;3.20;;;15.30;88.00;;;;;;5011206;28;20105;-66
2021/10/02 04:36:34;;;;;;;5.30;3.30;;;15.30;88.50;;;;;;5009583;28;20117;-64
2021/10/02 04:38:59;;;;;;;7.10;3.10;;;15.30;88.60;;;;;;5009638;28;20021;-64
2021/10/02 04:41:25;;;;;;;6.47;3.30;;;15.30;88.50;;;;;;5011249;28;20677;-65
2021/10/02 04:43:51;;;;;;;5.07;3.25;;;15.30;87.90;;;;;;5009941;28;20030;-65
2021/10/02 04:46:18;;;;;;;5.60;3.40;;;15.30;87.70;;;;;;5005590;28;20040;-67
2021/10/02 04:48:44;;;;;;;5.90;3.00;;;15.30;87.70;;;;;;5003223;28;20037;-65
2021/10/02 04:51:10;;;;;;;6.78;3.50;;;15.30;88.70;;;;;;5011024;28;20478;-66
2021/10/02 04:53:36;;;;;;;6.15;3.28;;;15.30;87.90;;;;;;5011141;28;20057;-67
2021/10/02 04:56:05;;;;;;;6.53;3.38;;;15.30;88.80;;;;;;5010789;28;20064;-65
2021/10/02 04:58:31;;;;;;;5.88;3.33;;;15.30;88.50;;;;;;5011096;28;20484;-66
2021/10/02 05:00:56;;;;;;;11.20;3.42;;;15.30;88.80;;;;;;5011222;28;20030;-66
2021/10/02 05:03:22;;;;;;;13.75;3.88;;;15.30;88.50;;;;;;5010611;28;20033;-65
2021/10/02 05:05:48;;;;;;;9.05;3.50;;;15.30;88.60;;;;;;5010986;28;20499;-66
2021/10/02 05:08:14;;;;;;;8.73;3.83;;;15.30;88.40;;;;;;5011131;28;20399;-65
2021/10/02 05:10:40;;;;;;;8.60;3.65;;;15.30;89.20;;;;;;5010456;28;20113;-65
2021/10/02 05:13:06;;;;;;;11.68;4.18;;;15.30;88.70;;;;;;5010933;28;20029;-65
2021/10/02 05:15:33;;;;;;;9.13;3.70;;;15.30;88.30;;;;;;5009682;28;20022;-67
2021/10/02 05:17:59;;;;;;;7.00;3.50;;;15.30;88.70;;;;;;5010202;28;20026;-65
2021/10/02 05:20:25;;;;;;;6.38;3.45;;;15.30;88.10;;;;;;5010953;28;20145;-65
2021/10/02 05:22:50;;;;;;;6.20;3.70;;;15.30;88.20;;;;;;5009502;28;20610;-66
2021/10/02 05:25:16;;;;;;;6.75;4.05;;;15.30;88.10;;;;;;5009122;28;20018;-66
2021/10/02 05:27:42;;;;;;;6.78;3.55;;;15.30;89.10;;;;;;5010540;28;20165;-65
2021/10/02 05:30:08;;;;;;;5.60;3.50;;;15.30;89.30;;;;;;5013207;28;20372;-65
2021/10/02 05:32:33;;;;;;;6.43;3.90;;;15.30;88.80;;;;;;5013893;28;20026;-63
2021/10/02 05:34:59;;;;;;;5.80;3.63;;;15.30;88.20;;;;;;5013062;28;20084;-65
2021/10/02 05:37:24;;;;;;;6.45;3.70;;;15.30;88.90;;;;;;5012645;28;20057;-65
2021/10/02 05:39:50;;;;;;;5.93;3.78;;;15.30;89.60;;;;;;5013633;28;20033;-65
2021/10/02 05:42:15;;;;;;;6.25;3.80;;;15.30;89.10;;;;;;5012998;28;20026;-65
2021/10/02 05:44:41;;;;;;;6.30;3.67;;;15.30;88.90;;;;;;5009119;28;20038;-68
2021/10/02 05:47:07;;;;;;;6.13;4.03;;;15.30;88.80;;;;;;5007331;28;20053;-67
2021/10/02 05:49:33;;;;;;;6.20;3.85;;;15.30;88.80;;;;;;5001729;28;20475;-67
2021/10/02 05:51:58;;;;;;;6.20;3.95;;;15.30;89.40;;;;;;5007648;28;20061;-67
2021/10/02 05:54:24;;;;;;;6.38;3.92;;;15.30;89.10;;;;;;5006420;28;20084;-65
2021/10/02 05:56:50;;;;;;;7.03;4.00;;;15.30;89.00;;;;;;5006168;28;20554;-65
2021/10/02 05:59:15;;;;;;;5.93;3.60;;;15.30;89.60;;;;;;5007592;28;20124;-67
2021/10/02 06:01:41;;;;;;;6.18;4.05;;;15.30;89.50;;;;;;5001976;28;20026;-66
2021/10/02 06:04:06;;;;;;;5.95;3.85;;;15.30;89.80;;;;;;5005812;28;20034;-65
2021/10/02 06:06:32;;;;;;;6.32;3.85;;;15.30;89.00;;;;;;5007231;28;20034;-67
2021/10/02 06:08:57;;;;;;;6.18;3.92;;;15.30;90.00;;;;;;5006189;28;20044;-66
2021/10/02 06:11:23;;;;;;;5.82;3.50;;;15.30;89.60;;;;;;5006167;28;20037;-65
2021/10/02 06:13:48;;;;;;;6.68;4.10;;;15.30;89.40;;;;;;5002801;28;20033;-66
2021/10/02 06:16:19;;;;;;;5.85;3.95;;;15.30;89.20;;;;;;5021615;28;20714;-67
2021/10/02 06:18:45;;;;;;;6.72;4.10;;;15.30;89.40;;;;;;5005622;28;20022;-69
2021/10/02 06:21:12;;;;;;;6.07;3.80;;;15.30;89.20;;;;;;5006782;28;20053;-66
2021/10/02 06:23:38;;;;;;;6.38;3.80;;;15.30;90.00;;;;;;5006852;28;20558;-66
2021/10/02 06:26:05;;;;;;;8.73;4.00;;;15.40;89.20;;;;;;5007200;28;20041;-66
2021/10/02 06:28:31;;;;;;;337.65;23.50;;;15.40;89.20;;;;;;5005727;28;20030;-66
2021/10/02 06:30:56;;;;;;;1875.10;145.45;;;15.40;89.00;;;;;;5004791;28;20037;-67
2021/10/02 06:33:22;;;;;;;1999.90;306.00;;;15.40;89.30;;;;;;5006639;28;20075;-66
2021/10/02 06:35:47;;;;;;;1999.90;213.68;;;15.40;89.80;;;;;;5006914;28;20176;-65
2021/10/02 06:38:15;;;;;;;1680.10;139.25;;;15.30;90.00;;;;;;5005015;28;20064;-65
2021/10/02 06:40:42;;;;;;;1207.53;102.78;;;15.30;90.00;;;;;;5005695;28;20038;-66
2021/10/02 06:43:07;;;;;;;766.53;61.10;;;15.40;90.00;;;;;;5005794;28;20037;-65
2021/10/02 06:45:33;;;;;;;611.63;47.13;;;15.30;90.10;;;;;;5006954;28;20103;-68
2021/10/02 06:47:58;;;;;;;686.53;57.03;;;15.30;90.20;;;;;;5006889;28;20045;-66
2021/10/02 06:50:24;;;;;;;539.42;41.92;;;15.30;89.80;;;;;;5005540;28;20454;-68
2021/10/02 06:52:50;;;;;;;471.27;35.75;;;15.40;90.30;;;;;;5005248;28;20026;-67
2021/10/02 06:55:15;;;;;;;561.13;47.38;;;15.30;90.40;;;;;;5005536;28;20045;-65
2021/10/02 06:57:41;;;;;;;432.13;33.42;;;15.30;90.20;;;;;;5006141;28;20034;-66
2021/10/02 07:00:07;;;;;;;371.20;27.73;;;15.30;90.20;;;;;;5004928;28;20387;-66
2021/10/02 07:02:38;;;;;;;288.63;22.95;;;15.30;89.90;;;;;;5005133;28;20037;-65
2021/10/02 07:05:04;;;;;;;237.80;18.50;;;15.30;90.50;;;;;;5005189;28;20620;-66
2021/10/02 07:07:29;;;;;;;224.05;18.13;;;15.40;90.20;;;;;;5005438;28;20050;-65
2021/10/02 07:09:55;;;;;;;218.32;19.52;;;15.30;90.40;;;;;;5004674;28;20496;-66
2021/10/02 07:12:20;;;;;;;203.82;17.92;;;15.30;90.60;;;;;;5004968;28;20485;-66
2021/10/02 07:14:46;;;;;;;156.77;15.90;;;15.30;90.50;;;;;;5005608;28;20960;-66
2021/10/02 07:17:13;;;;;;;152.43;13.60;;;15.30;90.50;;;;;;5005522;28;20069;-67
2021/10/02 07:19:39;;;;;;;131.20;13.10;;;15.30;90.70;;;;;;5004691;28;20193;-66
2021/10/02 07:22:04;;;;;;;139.10;13.48;;;15.30;91.00;;;;;;5006031;28;20406;-65
2021/10/02 07:24:30;;;;;;;109.63;10.57;;;15.30;90.70;;;;;;5004369;28;20038;-67
2021/10/02 07:26:56;;;;;;;121.28;11.52;;;15.30;90.40;;;;;;5004207;28;20022;-66
2021/10/02 07:29:21;;;;;;;101.85;11.35;;;15.40;90.30;;;;;;5004778;28;20686;-65
2021/10/02 07:31:48;;;;;;;85.15;9.63;;;15.30;90.50;;;;;;5005081;28;20388;-67
2021/10/02 07:34:14;;;;;;;78.97;10.10;;;15.30;90.40;;;;;;5005989;28;20022;-65
2021/10/02 07:36:39;;;;;;;73.60;9.68;;;15.30;90.20;;;;;;5005383;28;20044;-65
2021/10/02 07:39:05;;;;;;;90.43;10.90;;;15.40;90.10;;;;;;5005411;28;20041;-65
2021/10/02 07:41:33;;;;;;;81.03;9.93;;;15.30;90.40;;;;;;5003261;28;20021;-65
2021/10/02 07:44:03;;;;;;;52.70;7.03;;;15.30;90.30;;;;;;5004378;28;20037;-65
2021/10/02 07:46:30;;;;;;;32.72;5.88;;;15.40;90.60;;;;;;5004358;28;20030;-65
2021/10/02 07:48:56;;;;;;;18.25;4.80;;;15.40;90.90;;;;;;5005083;28;20038;-65
2021/10/02 07:51:24;;;;;;;15.73;4.20;;;15.40;91.00;;;;;;5004690;28;20045;-64
2021/10/02 07:53:52;;;;;;;13.82;4.10;;;15.30;91.20;;;;;;5003662;28;20048;-64
2021/10/02 07:56:18;;;;;;;25.80;4.40;;;15.30;91.40;;;;;;5003537;28;20041;-66
2021/10/02 07:58:46;;;;;;;12.60;4.03;;;15.30;91.70;;;;;;5003965;28;20114;-65
2021/10/02 08:01:12;;;;;;;13.20;3.90;;;15.30;92.00;;;;;;5003076;28;20038;-64
2021/10/02 08:03:38;;;;;;;15.88;4.30;;;15.20;92.00;;;;;;5002934;28;20036;-65
2021/10/02 08:06:05;;;;;;;13.55;3.97;;;15.20;92.00;;;;;;5005259;28;20388;-65
2021/10/02 08:08:30;;;;;;;11.93;4.00;;;15.30;92.00;;;;;;5002857;28;20030;-65
2021/10/02 08:10:56;;;;;;;18.55;4.30;;;15.30;91.70;;;;;;5004467;28;20434;-66
2021/10/02 08:13:22;;;;;;;19.27;4.20;;;15.30;91.90;;;;;;5004906;28;20061;-65
2021/10/02 08:15:59;;;;;;;20.60;4.80;;;15.30;91.50;;;;;;5004902;28;20026;-65
2021/10/02 08:18:27;;;;;;;13.98;4.63;;;15.30;91.40;;;;;;5003505;28;20068;-64
2021/10/02 08:20:53;;;;;;;22.65;4.00;;;15.30;91.40;;;;;;5005170;28;20026;-65
2021/10/02 08:23:22;;;;;;;17.77;4.32;;;15.30;91.10;;;;;;5003473;28;20080;-65
2021/10/02 08:25:49;;;;;;;18.13;4.43;;;15.30;91.00;;;;;;5003504;28;20030;-64
2021/10/02 08:28:15;;;;;;;15.32;3.40;;;15.40;91.60;;;;;;5004866;28;20476;-65
2021/10/02 08:30:43;;;;;;;15.60;3.80;;;15.40;91.30;;;;;;5003248;28;20083;-66
2021/10/02 08:33:10;;;;;;;16.20;3.42;;;15.30;91.30;;;;;;5003508;28;20026;-65
2021/10/02 08:35:36;;;;;;;16.65;3.60;;;15.30;91.20;;;;;;5004656;28;20026;-65
2021/10/02 08:38:02;;;;;;;19.40;3.90;;;15.30;91.00;;;;;;5002813;28;20498;-65
2021/10/02 08:40:27;;;;;;;54.25;6.35;;;15.40;90.70;;;;;;5003655;28;20037;-67
2021/10/02 08:42:54;;;;;;;56.08;6.68;;;15.40;90.60;;;;;;5004839;28;20400;-63
2021/10/02 08:45:20;;;;;;;1906.70;169.43;;;15.40;90.60;;;;;;5003133;28;20125;-65
2021/10/02 08:47:47;;;;;;;1999.90;217.63;;;15.50;90.50;;;;;;5003415;28;20038;-65
2021/10/02 09:05:31;;;;;;;151.65;13.85;;;15.40;90.70;;;;;;5103498;27;20762;-66
2021/10/02 09:07:59;;;;;;;1513.45;123.43;;;15.30;91.00;;;;;;5088069;28;20029;-67
2021/10/02 09:10:26;;;;;;;452.95;35.40;;;15.30;91.40;;;;;;5086405;28;20020;-67
2021/10/02 09:12:52;;;;;;;264.30;19.30;;;15.40;91.40;;;;;;5084355;28;20020;-68
2021/10/02 09:15:18;;;;;;;227.90;17.10;;;15.30;91.90;;;;;;5085306;28;20466;-66
2021/10/02 09:17:45;;;;;;;176.90;14.93;;;15.20;92.30;;;;;;5085975;28;20020;-66
2021/10/02 09:20:12;;;;;;;76.00;7.97;;;15.00;93.50;;;;;;5079316;28;20051;-67
2021/10/02 09:22:39;;;;;;;101.63;9.65;;;15.00;93.40;;;;;;5054134;28;20028;-68
2021/10/02 09:25:09;;;;;;;90.45;9.25;;;15.00;92.70;;;;;;5075294;28;20033;-65
2021/10/02 09:27:35;;;;;;;63.38;7.47;;;15.10;92.10;;;;;;5081028;28;20036;-65
2021/10/02 09:30:11;;;;;;;71.38;7.60;;;15.10;91.50;;;;;;5078644;28;20028;-66
2021/10/02 09:32:43;;;;;;;87.53;7.53;;;15.20;91.60;;;;;;5064509;28;20039;-64
2021/10/02 09:35:14;;;;;;;48.95;6.40;;;15.20;91.70;;;;;;5069347;28;20554;-65
2021/10/02 09:37:42;;;;;;;54.20;5.97;;;15.20;91.20;;;;;;5062792;28;20079;-67
2021/10/02 09:40:20;;;;;;;45.22;5.05;;;15.10;92.00;;;;;;5077372;28;20098;-65
2021/10/02 09:42:52;;;;;;;41.13;5.28;;;15.20;92.40;;;;;;5072184;28;20081;-67
2021/10/02 09:45:41;;;;;;;32.17;4.30;;;15.20;91.50;;;;;;5069206;28;20021;-67
2021/10/02 09:48:10;;;;;;;33.83;5.05;;;15.20;91.50;;;;;;5064044;28;20021;-66
2021/10/02 09:50:38;;;;;;;30.95;4.60;;;15.20;91.40;;;;;;5068674;28;20061;-66
2021/10/02 09:53:07;;;;;;;24.67;3.65;;;15.20;91.60;;;;;;5071651;28;20047;-67
2021/10/02 09:55:35;;;;;;;21.92;3.67;;;15.20;91.80;;;;;;5075234;28;20021;-66
2021/10/02 09:58:07;;;;;;;17.00;3.47;;;15.20;92.30;;;;;;5060185;28;20025;-68
2021/10/02 10:00:34;;;;;;;18.88;3.15;;;15.30;93.00;;;;;;5058875;28;20016;-67
2021/10/02 10:03:07;;;;;;;20.02;3.03;;;15.20;91.70;;;;;;5059685;28;20025;-67
2021/10/02 10:05:35;;;;;;;17.50;2.50;;;15.20;91.80;;;;;;5052241;28;20075;-66
2021/10/02 10:08:04;;;;;;;15.82;3.08;;;15.20;92.80;;;;;;5046677;28;20025;-66
2021/10/02 10:10:35;;;;;;;13.85;2.85;;;15.20;92.60;;;;;;5046340;28;20027;-66
2021/10/02 10:13:03;;;;;;;13.07;2.28;;;15.30;92.20;;;;;;5046599;28;20635;-67
2021/10/02 10:15:31;;;;;;;10.10;2.40;;;15.30;92.60;;;;;;5029016;28;20037;-64
2021/10/02 10:17:57;;;;;;;9.40;2.30;;;15.20;92.70;;;;;;5046972;28;20036;-67
2021/10/02 10:20:38;;;;;;;10.05;2.17;;;15.30;92.50;;;;;;5046771;28;20111;-66
2021/10/02 10:23:05;;;;;;;9.45;2.13;;;15.20;92.30;;;;;;5047045;28;20032;-67
2021/10/02 10:25:32;;;;;;;7.60;2.17;;;15.30;92.60;;;;;;5047268;28;20578;-66
2021/10/02 10:28:00;;;;;;;7.45;2.10;;;15.30;92.50;;;;;;5028418;28;20041;-68
2021/10/02 10:30:27;;;;;;;7.78;1.70;;;15.30;92.70;;;;;;5046747;28;20089;-67
2021/10/02 10:33:08;;;;;;;5.07;2.10;;;15.30;93.10;;;;;;5046882;28;20036;-68
2021/10/02 10:35:40;;;;;;;5.13;2.00;;;15.30;93.30;;;;;;5046897;28;20272;-67
2021/10/02 10:38:09;;;;;;;6.20;1.83;;;15.30;92.70;;;;;;5046795;28;20032;-67
2021/10/02 10:40:35;;;;;;;5.32;1.60;;;15.30;93.10;;;;;;5028452;28;20078;-68
2021/10/02 10:43:02;;;;;;;6.28;1.67;;;15.30;93.30;;;;;;5046025;28;20076;-67
2021/10/02 10:45:28;;;;;;;9.05;2.13;;;15.30;92.70;;;;;;5046764;28;20033;-66
2021/10/02 10:47:56;;;;;;;6.75;1.70;;;15.40;92.60;;;;;;5046575;28;20623;-66
2021/10/02 10:50:22;;;;;;;5.20;1.60;;;15.40;92.50;;;;;;5028125;28;20590;-65
2021/10/02 10:52:48;;;;;;;8.30;1.85;;;15.40;92.70;;;;;;5046819;28;20093;-67
2021/10/02 10:55:17;;;;;;;5.68;1.70;;;15.40;93.00;;;;;;5040169;28;20029;-65
2021/10/02 10:57:46;;;;;;;4.57;1.70;;;15.40;92.90;;;;;;5066048;28;20029;-68
2021/10/02 11:00:15;;;;;;;3.92;1.70;;;15.30;92.90;;;;;;5048285;28;20558;-66
2021/10/02 11:02:49;;;;;;;5.20;1.63;;;15.30;93.00;;;;;;5066355;28;20024;-67
2021/10/02 11:05:36;;;;;;;4.13;1.60;;;15.30;92.50;;;;;;5065805;28;20764;-67
2021/10/02 11:08:16;;;;;;;6.07;1.60;;;15.30;93.00;;;;;;5066256;28;20159;-67
2021/10/02 11:10:41;;;;;;;3.20;1.42;;;15.40;93.20;;;;;;5066157;28;20025;-67
2021/10/02 11:13:13;;;;;;;3.70;1.63;;;15.30;93.30;;;;;;5065231;28;20051;-65
2021/10/02 11:15:40;;;;;;;3.85;1.45;;;15.30;93.70;;;;;;5066178;28;20027;-65
2021/10/02 11:18:05;;;;;;;4.47;1.55;;;15.30;94.10;;;;;;5065392;28;20432;-67
2021/10/02 11:20:39;;;;;;;6.13;1.60;;;15.30;93.60;;;;;;5047032;28;20024;-65
2021/10/02 11:23:38;;;;;;;3.38;1.58;;;15.40;93.70;;;;;;5066135;28;20107;-66
2021/10/02 11:26:15;;;;;;;6.15;1.60;;;15.40;93.40;;;;;;5049740;28;20036;-67
2021/10/02 11:28:41;;;;;;;3.70;1.42;;;15.40;92.50;;;;;;5059466;28;20090;-66
2021/10/02 11:31:25;;;;;;;4.40;1.55;;;15.40;93.50;;;;;;5065449;28;20395;-67
2021/10/02 11:33:54;;;;;;;6.38;1.77;;;15.40;92.90;;;;;;5065679;28;20032;-67
2021/10/02 11:36:32;;;;;;;10.52;1.98;;;15.40;93.20;;;;;;5047161;28;20174;-67
2021/10/02 11:39:12;;;;;;;5.40;1.73;;;15.50;92.90;;;;;;5065378;28;20380;-66
2021/10/02 11:41:39;;;;;;;9.03;1.70;;;15.50;92.50;;;;;;5065699;28;20540;-67
2021/10/02 11:44:04;;;;;;;8.50;1.80;;;15.50;93.20;;;;;;5064719;28;20032;-65
2021/10/02 11:46:30;;;;;;;6.82;1.67;;;15.50;92.40;;;;;;5048005;28;20027;-67
2021/10/02 11:49:20;;;;;;;5.63;1.60;;;15.50;92.60;;;;;;5064873;28;20051;-67
2021/10/02 11:52:08;;;;;;;6.43;1.75;;;15.50;92.10;;;;;;5065620;28;20550;-68
2021/10/02 11:54:34;;;;;;;4.35;1.65;;;15.50;92.70;;;;;;5065027;28;20028;-66
2021/10/02 11:57:08;;;;;;;4.93;1.63;;;15.40;92.30;;;;;;5064977;28;20032;-68
2021/10/02 11:59:34;;;;;;;5.57;1.70;;;15.40;92.50;;;;;;5065031;28;20103;-66
2021/10/02 12:02:04;;;;;;;2.95;1.50;;;15.40;92.80;;;;;;5064984;28;20452;-66
2021/10/02 12:04:30;;;;;;;5.15;1.40;;;15.40;92.80;;;;;;5064011;28;20510;-67
2021/10/02 12:06:55;;;;;;;4.75;1.70;;;15.40;93.30;;;;;;5065443;28;20128;-67
2021/10/02 12:09:21;;;;;;;5.03;1.58;;;15.40;93.20;;;;;;5064846;28;20036;-65
2021/10/02 12:11:49;;;;;;;4.65;1.75;;;15.40;93.60;;;;;;5064999;28;20033;-67
2021/10/02 12:14:17;;;;;;;4.85;1.80;;;15.50;93.20;;;;;;5046979;28;20033;-66
2021/10/02 12:16:50;;;;;;;3.42;1.80;;;15.50;93.30;;;;;;5065143;28;20024;-65
2021/10/02 12:19:20;;;;;;;3.65;1.75;;;15.50;93.50;;;;;;5046356;28;20050;-65
2021/10/02 12:21:58;;;;;;;7.50;2.25;;;15.50;93.20;;;;;;5064912;28;20036;-65
2021/10/02 12:24:28;;;;;;;6.45;1.60;;;15.50;93.80;;;;;;5064751;28;20060;-67
2021/10/02 12:27:01;;;;;;;6.05;1.75;;;15.50;93.40;;;;;;5064439;28;20024;-67
2021/10/02 12:29:29;;;;;;;4.90;1.55;;;15.50;93.50;;;;;;5046148;28;20032;-65
2021/10/02 12:32:02;;;;;;;5.47;1.80;;;15.50;93.20;;;;;;5064872;28;20035;-67
2021/10/02 12:34:34;;;;;;;4.95;1.67;;;15.50;93.30;;;;;;5043469;28;20067;-65
2021/10/02 12:37:14;;;;;;;3.10;1.52;;;15.60;93.40;;;;;;5036841;28;20020;-66
2021/10/02 12:39:45;;;;;;;4.38;1.58;;;15.50;93.10;;;;;;5055065;28;20081;-67
2021/10/02 12:42:15;;;;;;;3.15;1.70;;;15.50;93.20;;;;;;5039689;28;20031;-65
2021/10/02 12:44:47;;;;;;;4.03;1.70;;;15.50;93.40;;;;;;5056316;28;20041;-66
2021/10/02 12:47:12;;;;;;;7.35;1.90;;;15.50;93.60;;;;;;5049015;28;20048;-66
2021/10/02 12:49:45;;;;;;;8.05;1.67;;;15.50;93.40;;;;;;5063278;28;20068;-66
2021/10/02 12:52:17;;;;;;;5.55;1.45;;;15.50;93.90;;;;;;5045368;28;20158;-66
2021/10/02 12:54:47;;;;;;;8.35;1.88;;;15.50;93.60;;;;;;5055982;28;20063;-67
2021/10/02 12:57:17;;;;;;;6.57;1.80;;;15.50;93.90;;;;;;5062818;28;20604;-66
2021/10/02 13:00:11;;;;;;;5.28;1.80;;;15.40;94.00;;;;;;5042671;28;20074;-67
2021/10/02 13:02:41;;;;;;;2.55;1.42;;;15.50;93.90;;;;;;5056450;28;20113;-66
2021/10/02 13:05:07;;;;;;;5.70;1.50;;;15.50;94.20;;;;;;5044526;28;20033;-68
2021/10/02 13:07:35;;;;;;;5.00;1.70;;;15.50;94.00;;;;;;5046891;28;20490;-67
2021/10/02 13:10:07;;;;;;;13.60;2.65;;;15.50;93.90;;;;;;5060492;28;20040;-67
2021/10/02 13:12:34;;;;;;;;;;;15.50;94.20;;;;;;5048315;28;20397;-65
2021/10/02 13:15:05;;;;;;;6.38;1.60;;;15.50;93.90;;;;;;5049527;28;19928;-66
2021/10/02 13:17:31;;;;;;;8.43;2.05;;;15.50;94.00;;;;;;5046293;28;20025;-67
2021/10/02 13:20:09;;;;;;;9.32;1.90;;;15.50;94.10;;;;;;5023503;28;20036;-67
2021/10/02 13:22:40;;;;;;;6.25;1.80;;;15.50;94.00;;;;;;5057895;28;20032;-66
2021/10/02 13:25:23;;;;;;;4.72;1.58;;;15.50;94.10;;;;;;5063333;28;20058;-66
2021/10/02 13:27:55;;;;;;;8.27;2.60;;;15.50;94.10;;;;;;5064834;28;20028;-66
2021/10/02 13:30:26;;;;;;;7.72;2.20;;;15.50;93.30;;;;;;5069651;28;20082;-64
2021/10/02 13:33:02;;;;;;;5.93;2.00;;;15.60;93.70;;;;;;5068827;28;20052;-65
2021/10/02 13:35:30;;;;;;;4.97;2.00;;;15.60;93.80;;;;;;5069510;28;20348;-66
2021/10/02 13:37:56;;;;;;;4.97;2.20;;;15.50;93.90;;;;;;5069250;28;20025;-68
2021/10/02 13:40:29;;;;;;;6.05;2.17;;;15.50;94.10;;;;;;5070828;28;20099;-67
2021/10/02 13:42:55;;;;;;;5.28;2.30;;;15.50;94.10;;;;;;5074054;28;20032;-65
2021/10/02 13:45:27;;;;;;;5.13;2.20;;;15.50;94.30;;;;;;5055698;28;20115;-66
2021/10/02 13:48:10;;;;;;;4.07;2.20;;;15.50;94.40;;;;;;5073594;28;20020;-68
2021/10/02 13:50:37;;;;;;;4.10;2.20;;;15.50;94.40;;;;;;5073729;28;20036;-67
2021/10/02 13:53:03;;;;;;;4.10;2.05;;;15.50;94.20;;;;;;5072871;28;20709;-65
2021/10/02 13:55:30;;;;;;;4.80;1.90;;;15.50;94.40;;;;;;5073511;28;20095;-67
2021/10/02 13:57:57;;;;;;;7.22;2.47;;;15.50;94.30;;;;;;5073997;28;20017;-66
2021/10/02 14:00:24;;;;;;;4.90;2.05;;;15.50;94.30;;;;;;5073347;28;20017;-66
2021/10/02 14:02:51;;;;;;;5.72;2.13;;;15.50;94.20;;;;;;5073839;28;20020;-65
2021/10/02 14:05:17;;;;;;;4.97;2.08;;;15.50;94.30;;;;;;5073599;28;20031;-67